Time;durP1;ratioP1;P1;durP2;ratioP2;P2;SDS_P1;SDS_P2;PMS_P1;PMS_P2;Temp;Humidity;BMP_temperature;BMP_pressure;BME280_temperature;BME280_humidity;BME280_pressure;Samples;Min_cycle;Max_cycle;Signal;HPM_P1;HPM_P2
2021/07/19 00:00:19;;;;;;;3.40;1.93;;;19.70;99.90;;;;;;5071328;28;20537;-71
2021/07/19 00:02:47;;;;;;;2.47;2.20;;;19.70;99.90;;;;;;5072131;28;20596;-71
2021/07/19 00:05:16;;;;;;;5.17;3.03;;;19.70;99.90;;;;;;5055526;28;20550;-72
2021/07/19 00:07:43;;;;;;;3.03;1.80;;;19.70;99.90;;;;;;5052886;28;20560;-72
2021/07/19 00:10:13;;;;;;;4.00;3.00;;;19.70;99.90;;;;;;5059059;28;20474;-71
2021/07/19 00:12:42;;;;;;;7.10;2.77;;;19.70;99.90;;;;;;5056574;28;20487;-71
2021/07/19 00:15:12;;;;;;;4.40;2.90;;;19.70;99.90;;;;;;5055202;28;20553;-70
2021/07/19 00:17:39;;;;;;;3.23;2.10;;;19.70;99.90;;;;;;5050843;28;21075;-71
2021/07/19 00:20:08;;;;;;;3.07;2.60;;;19.60;99.90;;;;;;5054304;28;20450;-71
2021/07/19 00:22:35;;;;;;;4.67;4.27;;;19.50;99.90;;;;;;5054386;28;20478;-70
2021/07/19 00:25:02;;;;;;;6.27;2.50;;;19.60;99.90;;;;;;5057682;28;20474;-71
2021/07/19 00:27:29;;;;;;;4.73;2.30;;;19.70;99.90;;;;;;5053700;28;21071;-70
2021/07/19 00:29:58;;;;;;;3.23;2.70;;;19.60;99.90;;;;;;5057719;28;20601;-70
2021/07/19 00:32:24;;;;;;;3.37;2.40;;;19.50;99.90;;;;;;5052148;28;20533;-71
2021/07/19 00:34:51;;;;;;;3.83;2.40;;;19.50;99.90;;;;;;5056670;28;20545;-72
2021/07/19 00:37:18;;;;;;;5.00;3.30;;;19.50;99.90;;;;;;5057813;28;20509;-71
2021/07/19 00:39:46;;;;;;;3.30;2.63;;;19.50;99.90;;;;;;5058627;28;20471;-71
2021/07/19 00:42:13;;;;;;;4.37;3.13;;;19.40;99.90;;;;;;5056995;28;20510;-70
2021/07/19 00:44:39;;;;;;;7.60;3.63;;;19.40;99.90;;;;;;5057778;28;20868;-71
2021/07/19 00:47:10;;;;;;;13.53;2.90;;;19.20;99.90;;;;;;5052896;28;20565;-72
2021/07/19 00:49:39;;;;;;;6.87;2.73;;;19.10;99.90;;;;;;5049424;28;20455;-71
2021/07/19 00:52:06;;;;;;;5.17;2.40;;;19.20;99.90;;;;;;5056298;28;22029;-71
2021/07/19 00:54:36;;;;;;;5.90;3.10;;;19.20;99.90;;;;;;5054642;28;20439;-69
2021/07/19 00:57:05;;;;;;;4.70;3.30;;;19.00;99.90;;;;;;5054701;28;20568;-71
2021/07/19 00:59:35;;;;;;;6.37;2.93;;;19.00;99.90;;;;;;5057072;28;20771;-70
2021/07/19 01:02:03;;;;;;;13.53;3.03;;;18.70;99.90;;;;;;5055077;28;20513;-69
2021/07/19 01:04:33;;;;;;;7.20;3.43;;;18.90;99.90;;;;;;5058531;28;20562;-70
2021/07/19 01:07:03;;;;;;;3.30;2.67;;;18.90;99.90;;;;;;5057652;28;20505;-71
2021/07/19 01:09:30;;;;;;;4.03;2.80;;;18.90;99.90;;;;;;5048442;28;20561;-71
2021/07/19 01:11:58;;;;;;;7.83;3.13;;;18.80;99.90;;;;;;5054344;28;20553;-71
2021/07/19 01:14:26;;;;;;;10.97;3.90;;;18.80;99.90;;;;;;5054878;28;20459;-72
2021/07/19 01:16:53;;;;;;;4.07;3.00;;;18.80;99.90;;;;;;5055638;28;20505;-70
2021/07/19 01:19:22;;;;;;;4.73;2.80;;;18.80;99.90;;;;;;5054209;28;20533;-70
2021/07/19 01:22:18;;;;;;;5.30;2.97;;;18.80;99.90;;;;;;5052325;28;20602;-71
2021/07/19 01:24:53;;;;;;;6.87;3.10;;;18.80;99.90;;;;;;5054742;28;21090;-71
2021/07/19 01:27:48;;;;;;;3.97;3.57;;;18.60;99.90;;;;;;5059500;28;20473;-71
2021/07/19 01:30:17;;;;;;;5.87;3.00;;;18.60;99.90;;;;;;5057487;28;20577;-71
2021/07/19 01:32:47;;;;;;;3.87;3.40;;;18.60;99.90;;;;;;5054216;28;20545;-72
2021/07/19 01:35:15;;;;;;;3.90;2.70;;;18.60;99.90;;;;;;5053667;28;20477;-71
2021/07/19 01:37:45;;;;;;;4.70;3.60;;;18.60;99.90;;;;;;5058224;28;20464;-71
2021/07/19 01:40:14;;;;;;;4.10;2.80;;;18.60;99.90;;;;;;5059472;28;20955;-71
2021/07/19 01:42:42;;;;;;;6.17;3.47;;;18.50;99.90;;;;;;5057894;28;20553;-72
2021/07/19 01:45:11;;;;;;;8.13;4.87;;;18.50;99.90;;;;;;5051490;28;20558;-70
2021/07/19 01:47:40;;;;;;;8.53;3.80;;;18.50;99.90;;;;;;5053041;28;20512;-71
2021/07/19 01:50:09;;;;;;;8.60;3.00;;;18.50;99.90;;;;;;5053960;28;20446;-71
2021/07/19 01:52:38;;;;;;;4.97;3.43;;;18.50;99.90;;;;;;5056405;28;20464;-72
2021/07/19 01:55:06;;;;;;;5.37;3.50;;;18.50;99.90;;;;;;5057315;28;20446;-71
2021/07/19 01:57:33;;;;;;;9.83;3.80;;;18.30;99.90;;;;;;5055232;28;20543;-72
2021/07/19 02:00:01;;;;;;;6.73;4.60;;;18.30;99.90;;;;;;5053091;28;20549;-71
2021/07/19 02:02:28;;;;;;;5.77;3.23;;;18.30;99.90;;;;;;5059908;28;20510;-73
2021/07/19 02:04:56;;;;;;;7.87;2.70;;;18.40;99.90;;;;;;5054739;28;20490;-72
2021/07/19 02:07:27;;;;;;;4.20;2.90;;;18.30;99.90;;;;;;5054164;28;21903;-71
2021/07/19 02:09:55;;;;;;;8.10;3.43;;;18.40;99.90;;;;;;5056673;28;20569;-72
2021/07/19 02:12:23;;;;;;;8.97;4.27;;;18.40;99.90;;;;;;5052755;28;20450;-71
2021/07/19 02:14:52;;;;;;;4.73;3.20;;;18.40;99.90;;;;;;5054970;28;20547;-72
2021/07/19 02:17:21;;;;;;;6.57;3.87;;;18.40;99.90;;;;;;5054029;28;20566;-71
2021/07/19 02:19:49;;;;;;;9.50;3.83;;;18.40;99.90;;;;;;5056242;28;20975;-70
2021/07/19 02:22:19;;;;;;;5.57;3.47;;;18.30;99.90;;;;;;5057473;28;20502;-71
2021/07/19 02:24:48;;;;;;;4.17;3.77;;;18.40;99.90;;;;;;5054625;28;20458;-71
2021/07/19 02:27:16;;;;;;;6.27;3.90;;;18.40;99.90;;;;;;5058866;28;20512;-70
2021/07/19 02:29:44;;;;;;;3.97;3.27;;;18.30;99.90;;;;;;5055307;28;20918;-71
2021/07/19 02:32:12;;;;;;;5.40;4.03;;;18.30;99.90;;;;;;5053671;28;20542;-71
2021/07/19 02:34:39;;;;;;;10.70;4.20;;;18.20;99.90;;;;;;5059927;28;20450;-69
2021/07/19 02:37:07;;;;;;;5.73;4.03;;;18.10;99.90;;;;;;5056843;28;20476;-70
2021/07/19 02:39:37;;;;;;;9.07;4.57;;;18.00;99.90;;;;;;5052872;28;20541;-71
2021/07/19 02:42:06;;;;;;;5.47;3.47;;;18.00;99.90;;;;;;5054844;28;20874;-70
2021/07/19 02:44:33;;;;;;;5.13;3.47;;;18.00;99.90;;;;;;5057236;28;20534;-71
2021/07/19 02:47:02;;;;;;;6.33;4.50;;;18.10;99.90;;;;;;5060089;28;20937;-71
2021/07/19 02:49:29;;;;;;;6.63;4.23;;;18.10;99.90;;;;;;5057285;28;20474;-71
2021/07/19 02:51:57;;;;;;;11.33;6.57;;;18.10;99.90;;;;;;5059886;28;20494;-72
2021/07/19 02:54:26;;;;;;;8.17;5.63;;;18.00;99.90;;;;;;5055978;28;21037;-70
2021/07/19 02:56:55;;;;;;;5.70;3.67;;;18.00;99.90;;;;;;5057291;28;20483;-71
2021/07/19 02:59:23;;;;;;;8.27;5.27;;;18.00;99.90;;;;;;5046758;28;20574;-72
2021/07/19 03:01:53;;;;;;;15.47;4.83;;;18.10;99.90;;;;;;5060736;28;20461;-71
2021/07/19 03:04:21;;;;;;;15.63;4.40;;;18.10;99.90;;;;;;5057366;28;21031;-72
2021/07/19 03:06:51;;;;;;;6.93;3.90;;;18.10;99.90;;;;;;5054028;28;20474;-71
2021/07/19 03:09:20;;;;;;;5.67;3.80;;;18.10;99.90;;;;;;5056756;28;20454;-71
2021/07/19 03:11:49;;;;;;;6.80;4.97;;;17.90;99.90;;;;;;5056353;28;20549;-71
2021/07/19 03:14:20;;;;;;;4.50;3.57;;;17.80;99.90;;;;;;5060074;28;20540;-72
2021/07/19 03:16:49;;;;;;;8.60;3.87;;;17.70;99.90;;;;;;5055073;28;20486;-70
2021/07/19 03:19:19;;;;;;;4.67;3.10;;;17.80;99.90;;;;;;5055937;28;20510;-72
2021/07/19 03:21:49;;;;;;;12.17;5.17;;;18.10;99.90;;;;;;5055912;28;20509;-71
2021/07/19 03:24:18;;;;;;;7.23;4.13;;;18.10;99.90;;;;;;5055116;28;20478;-71
2021/07/19 03:26:46;;;;;;;10.40;4.97;;;18.20;99.90;;;;;;5056020;28;20462;-71
2021/07/19 03:29:13;;;;;;;6.23;5.37;;;18.10;99.90;;;;;;5050009;28;20451;-70
2021/07/19 03:31:43;;;;;;;8.37;4.10;;;18.20;99.90;;;;;;5047909;28;20462;-71
2021/07/19 03:34:13;;;;;;;6.60;4.50;;;18.20;99.90;;;;;;5053972;28;20717;-70
2021/07/19 03:36:41;;;;;;;9.30;5.73;;;18.00;99.90;;;;;;5053871;28;20801;-71
2021/07/19 03:39:09;;;;;;;7.80;4.60;;;18.00;99.90;;;;;;5058628;28;20536;-71
2021/07/19 03:41:36;;;;;;;7.23;4.30;;;18.10;99.90;;;;;;5054203;28;20467;-70
2021/07/19 03:44:05;;;;;;;6.50;4.27;;;18.10;99.90;;;;;;5061261;28;20552;-70
2021/07/19 03:46:33;;;;;;;8.83;3.90;;;18.00;99.90;;;;;;5058853;28;20459;-71
2021/07/19 03:49:03;;;;;;;8.33;5.77;;;17.80;99.90;;;;;;5058581;28;20513;-70
2021/07/19 03:51:32;;;;;;;6.53;3.77;;;17.70;99.90;;;;;;5058239;28;20575;-71
2021/07/19 03:53:59;;;;;;;10.13;4.40;;;17.60;99.90;;;;;;5057177;28;20455;-72
2021/07/19 03:56:28;;;;;;;9.83;5.60;;;17.70;99.90;;;;;;5056101;28;21114;-71
2021/07/19 03:58:56;;;;;;;13.13;7.17;;;17.80;99.90;;;;;;5056812;28;20442;-72
2021/07/19 04:01:24;;;;;;;8.40;4.70;;;17.70;99.90;;;;;;5055747;28;20565;-70
2021/07/19 04:03:54;;;;;;;8.67;5.03;;;17.70;99.90;;;;;;5054794;28;20479;-71
2021/07/19 04:06:24;;;;;;;7.30;3.70;;;17.50;99.90;;;;;;5063291;28;20924;-71
2021/07/19 04:08:51;;;;;;;9.03;4.70;;;17.40;99.90;;;;;;5062201;28;20447;-71
2021/07/19 04:11:20;;;;;;;11.27;5.90;;;17.40;99.90;;;;;;5061806;28;20539;-71
2021/07/19 04:13:47;;;;;;;7.23;5.10;;;17.40;99.90;;;;;;5057746;28;20546;-72
2021/07/19 04:16:16;;;;;;;6.47;4.53;;;17.20;99.90;;;;;;5058387;28;21065;-72
2021/07/19 04:18:42;;;;;;;6.30;4.93;;;17.30;99.90;;;;;;5068115;28;20830;-73
2021/07/19 04:21:11;;;;;;;8.40;4.60;;;17.40;99.90;;;;;;5065965;28;21101;-71
2021/07/19 04:23:40;;;;;;;6.70;3.93;;;17.30;99.90;;;;;;5060846;28;20503;-72
2021/07/19 04:26:08;;;;;;;9.13;5.27;;;17.40;99.90;;;;;;5058761;28;20866;-71
2021/07/19 04:28:35;;;;;;;7.30;4.10;;;17.40;99.90;;;;;;5052443;28;20538;-72
2021/07/19 04:31:02;;;;;;;7.53;4.67;;;17.40;99.90;;;;;;5047309;28;20561;-72
2021/07/19 04:33:29;;;;;;;12.00;4.90;;;17.50;99.90;;;;;;5054270;28;20458;-71
2021/07/19 04:35:57;;;;;;;7.57;4.23;;;17.70;99.90;;;;;;5057620;28;20553;-71
2021/07/19 04:38:24;;;;;;;6.73;3.83;;;17.70;99.90;;;;;;5051283;28;20503;-72
2021/07/19 04:40:54;;;;;;;6.80;4.83;;;17.60;99.90;;;;;;5052122;28;20473;-70
2021/07/19 04:43:23;;;;;;;9.90;4.90;;;17.60;99.90;;;;;;5051535;28;20602;-71
2021/07/19 04:45:50;;;;;;;8.87;4.73;;;17.60;99.90;;;;;;5053322;28;20573;-71
2021/07/19 04:48:18;;;;;;;13.67;7.33;;;17.70;99.90;;;;;;5052474;28;20479;-72
2021/07/19 04:50:46;;;;;;;13.13;9.23;;;17.70;99.90;;;;;;5051801;28;20487;-71
2021/07/19 04:53:15;;;;;;;8.17;6.00;;;17.70;99.90;;;;;;5055017;28;21069;-72
2021/07/19 04:55:44;;;;;;;10.03;5.47;;;17.90;99.90;;;;;;5055938;28;20997;-72
2021/07/19 04:58:15;;;;;;;22.03;7.60;;;17.90;99.90;;;;;;5055691;28;20478;-70
2021/07/19 05:00:46;;;;;;;10.47;5.00;;;18.00;99.90;;;;;;5061351;28;22231;-71
2021/07/19 05:03:15;;;;;;;6.87;4.97;;;18.20;99.90;;;;;;5057188;28;20470;-70
2021/07/19 05:05:44;;;;;;;8.63;6.10;;;18.20;99.90;;;;;;5052218;28;20541;-71
2021/07/19 05:08:12;;;;;;;8.80;5.13;;;18.20;99.90;;;;;;5047868;28;20491;-72
2021/07/19 05:10:41;;;;;;;8.50;5.50;;;18.20;99.90;;;;;;5055195;28;20570;-69
2021/07/19 05:13:11;;;;;;;7.30;5.57;;;18.20;99.90;;;;;;5060558;28;20446;-73
2021/07/19 05:15:41;;;;;;;7.63;5.10;;;18.30;99.90;;;;;;5053951;28;20550;-71
2021/07/19 05:18:08;;;;;;;7.10;4.27;;;18.20;99.90;;;;;;5054516;28;20482;-70
2021/07/19 05:20:36;;;;;;;17.23;6.00;;;18.40;99.90;;;;;;5053102;28;20456;-70
2021/07/19 05:23:04;;;;;;;7.27;4.70;;;18.50;99.90;;;;;;5059621;28;20463;-72
2021/07/19 05:25:34;;;;;;;11.90;4.50;;;18.50;99.90;;;;;;5063596;28;20454;-71
2021/07/19 05:28:12;;;;;;;7.10;4.40;;;18.70;99.90;;;;;;5060126;28;20490;-72
2021/07/19 05:30:43;;;;;;;7.87;5.17;;;19.10;99.90;;;;;;5059183;28;20457;-71
2021/07/19 05:33:11;;;;;;;6.93;4.67;;;19.10;99.90;;;;;;5056786;28;20454;-71
2021/07/19 05:35:38;;;;;;;8.43;5.20;;;19.20;99.90;;;;;;5061039;28;20979;-71
2021/07/19 05:38:06;;;;;;;11.10;6.10;;;19.40;99.90;;;;;;5058380;28;20574;-72
2021/07/19 05:40:33;;;;;;;9.63;4.63;;;19.40;99.90;;;;;;5064575;28;20475;-71
2021/07/19 05:43:00;;;;;;;10.00;5.90;;;19.40;99.90;;;;;;5061249;28;20584;-71
2021/07/19 05:45:27;;;;;;;9.30;4.87;;;19.60;99.90;;;;;;5055580;28;20570;-71
2021/07/19 05:47:57;;;;;;;11.70;5.90;;;19.80;99.90;;;;;;5058965;28;20541;-71
2021/07/19 05:50:25;;;;;;;15.90;6.67;;;20.10;99.90;;;;;;5057160;28;21222;-71
2021/07/19 05:52:52;;;;;;;11.30;4.77;;;20.10;99.90;;;;;;5054656;28;20466;-70
2021/07/19 05:55:19;;;;;;;10.60;5.20;;;20.30;99.90;;;;;;5058631;28;20527;-71
2021/07/19 05:57:46;;;;;;;23.93;6.67;;;20.50;99.90;;;;;;5056856;28;20978;-71
2021/07/19 06:00:16;;;;;;;10.00;5.83;;;20.50;99.90;;;;;;5057881;28;20442;-70
2021/07/19 06:02:43;;;;;;;10.40;5.27;;;20.10;99.90;;;;;;5056052;28;20455;-71
2021/07/19 06:05:14;;;;;;;11.37;5.63;;;20.20;99.90;;;;;;5056683;28;20474;-71
2021/07/19 06:07:42;;;;;;;9.80;5.40;;;20.10;99.90;;;;;;5053463;28;20602;-72
2021/07/19 06:10:11;;;;;;;9.30;4.33;;;20.00;99.90;;;;;;5055574;28;21056;-71
2021/07/19 06:12:39;;;;;;;13.97;4.57;;;19.80;99.90;;;;;;5056685;28;20568;-71
2021/07/19 06:15:07;;;;;;;15.30;6.03;;;19.70;99.90;;;;;;5059016;28;20528;-71
2021/07/19 06:17:36;;;;;;;8.33;6.20;;;19.60;99.90;;;;;;5058785;28;21908;-71
2021/07/19 06:20:07;;;;;;;8.27;4.40;;;19.50;99.90;;;;;;5057111;28;20526;-70
2021/07/19 06:22:36;;;;;;;10.00;6.30;;;19.70;99.90;;;;;;5071761;28;20483;-72
2021/07/19 06:25:04;;;;;;;6.60;5.20;;;19.50;99.90;;;;;;5074159;28;21233;-70
2021/07/19 06:27:31;;;;;;;11.37;5.87;;;19.50;99.90;;;;;;5071183;28;20466;-72
2021/07/19 06:29:58;;;;;;;9.83;5.13;;;19.50;99.90;;;;;;5057771;28;20549;-71
2021/07/19 06:32:25;;;;;;;7.77;4.90;;;19.40;99.90;;;;;;5060692;28;20466;-71
2021/07/19 06:34:52;;;;;;;9.13;5.50;;;19.20;99.90;;;;;;5077603;28;20462;-71
2021/07/19 06:37:19;;;;;;;8.10;5.77;;;19.40;99.90;;;;;;5079880;28;20528;-71
2021/07/19 06:39:47;;;;;;;10.57;5.37;;;19.50;99.90;;;;;;5073528;28;21206;-71
2021/07/19 06:42:14;;;;;;;8.40;5.43;;;19.50;99.90;;;;;;5078376;28;20951;-71
2021/07/19 06:44:41;;;;;;;9.13;5.80;;;19.50;99.90;;;;;;5065208;28;21052;-69
2021/07/19 06:47:08;;;;;;;9.30;5.47;;;19.50;99.90;;;;;;5064484;28;20466;-70
2021/07/19 06:49:35;;;;;;;9.10;6.10;;;19.40;99.90;;;;;;5058985;28;20490;-71
2021/07/19 06:52:02;;;;;;;11.20;5.80;;;19.40;99.90;;;;;;5061258;28;20541;-71
2021/07/19 06:54:29;;;;;;;10.93;5.90;;;19.30;99.90;;;;;;5060841;28;20462;-71
2021/07/19 06:56:57;;;;;;;12.13;6.03;;;19.50;99.90;;;;;;5054012;28;20567;-71
2021/07/19 06:59:24;;;;;;;8.53;5.00;;;19.50;99.90;;;;;;5062783;28;20431;-71
2021/07/19 07:01:51;;;;;;;9.33;5.07;;;19.60;99.90;;;;;;5062417;28;20569;-72
2021/07/19 07:04:18;;;;;;;8.17;5.30;;;19.80;99.90;;;;;;5061636;28;20470;-72
2021/07/19 07:06:45;;;;;;;9.70;6.07;;;19.80;99.90;;;;;;5060724;28;20882;-72
2021/07/19 07:09:12;;;;;;;9.50;5.60;;;19.60;99.90;;;;;;5062942;28;20475;-68
2021/07/19 07:11:40;;;;;;;9.70;5.70;;;19.70;99.90;;;;;;5059520;28;21230;-72
2021/07/19 07:14:08;;;;;;;11.50;6.80;;;19.70;99.90;;;;;;5057406;28;20551;-71
2021/07/19 07:16:35;;;;;;;8.57;5.00;;;19.70;99.90;;;;;;5058034;28;20502;-72
2021/07/19 07:19:02;;;;;;;8.37;5.47;;;19.80;99.90;;;;;;5060359;28;20931;-71
2021/07/19 07:21:31;;;;;;;14.23;5.17;;;19.90;99.90;;;;;;5061360;28;20542;-73
2021/07/19 07:23:58;;;;;;;9.27;4.80;;;20.10;99.90;;;;;;5058319;28;20494;-71
2021/07/19 07:26:26;;;;;;;8.97;5.13;;;20.10;99.90;;;;;;5058503;28;20560;-72
2021/07/19 07:28:53;;;;;;;9.43;5.30;;;20.30;99.90;;;;;;5060767;28;20462;-71
2021/07/19 07:31:26;;;;;;;10.77;4.87;;;20.50;99.90;;;;;;5060487;28;20506;-71
2021/07/19 07:33:53;;;;;;;10.57;5.80;;;20.60;99.90;;;;;;5059057;28;20979;-72
2021/07/19 07:36:20;;;;;;;8.17;5.50;;;20.80;99.90;;;;;;5064332;28;20888;-72
2021/07/19 07:38:47;;;;;;;5.53;4.03;;;20.80;99.90;;;;;;5063313;28;20516;-72
2021/07/19 07:41:14;;;;;;;9.37;5.70;;;21.00;99.90;;;;;;5065877;28;20539;-71
2021/07/19 07:43:41;;;;;;;7.23;4.50;;;20.90;99.90;;;;;;5063506;28;20496;-71
2021/07/19 07:46:09;;;;;;;8.80;5.80;;;21.00;99.90;;;;;;5063825;28;20889;-71
2021/07/19 07:48:37;;;;;;;6.57;4.70;;;20.80;99.90;;;;;;5061578;28;20510;-71
2021/07/19 07:51:05;;;;;;;10.13;4.97;;;20.80;99.90;;;;;;5063283;28;20512;-71
2021/07/19 07:53:32;;;;;;;9.47;5.70;;;20.70;99.90;;;;;;5060078;28;20474;-71
2021/07/19 07:55:59;;;;;;;7.53;5.70;;;20.50;99.90;;;;;;5064216;28;20529;-71
2021/07/19 07:58:26;;;;;;;8.10;5.27;;;20.60;99.90;;;;;;5065637;28;20967;-71
2021/07/19 08:00:54;;;;;;;8.70;5.07;;;20.60;99.90;;;;;;5056084;28;20534;-71
2021/07/19 08:03:21;;;;;;;11.00;5.10;;;20.50;99.90;;;;;;5061654;28;20550;-71
2021/07/19 08:05:49;;;;;;;11.40;5.60;;;20.50;99.90;;;;;;5058953;28;20536;-72
2021/07/19 08:08:16;;;;;;;6.70;5.40;;;20.30;99.90;;;;;;5052355;28;20590;-73
2021/07/19 08:10:44;;;;;;;8.70;4.50;;;20.10;99.90;;;;;;5052312;28;20532;-70
2021/07/19 08:13:11;;;;;;;8.70;6.37;;;20.10;99.90;;;;;;5057054;28;20562;-72
2021/07/19 08:15:39;;;;;;;7.37;5.13;;;20.30;99.90;;;;;;5055304;28;20493;-71
2021/07/19 08:18:06;;;;;;;9.17;6.20;;;20.50;99.90;;;;;;5056276;28;20488;-71
2021/07/19 08:20:33;;;;;;;12.47;7.20;;;20.60;99.90;;;;;;5060430;28;20483;-70
2021/07/19 08:23:02;;;;;;;12.97;4.20;;;20.60;99.90;;;;;;5057171;28;20534;-73
2021/07/19 08:25:28;;;;;;;8.60;6.30;;;20.40;99.90;;;;;;5062201;28;20561;-71
2021/07/19 08:27:56;;;;;;;8.10;5.20;;;20.30;99.90;;;;;;5058311;28;20502;-72
2021/07/19 08:30:23;;;;;;;8.27;6.03;;;20.30;99.90;;;;;;5058914;28;20454;-71
2021/07/19 08:32:51;;;;;;;8.20;5.40;;;20.50;99.90;;;;;;5058424;28;20557;-71
2021/07/19 08:35:18;;;;;;;8.30;4.37;;;20.40;99.90;;;;;;5058687;28;20474;-72
2021/07/19 08:37:47;;;;;;;6.13;4.63;;;20.50;99.90;;;;;;5061731;28;20539;-71
2021/07/19 08:40:17;;;;;;;12.80;6.97;;;20.60;99.90;;;;;;5063790;28;20732;-71
2021/07/19 08:42:44;;;;;;;8.50;4.90;;;20.70;99.90;;;;;;5059715;28;20599;-72
2021/07/19 08:45:12;;;;;;;12.40;4.90;;;21.10;99.90;;;;;;5057799;28;20554;-71
2021/07/19 08:47:41;;;;;;;8.93;5.07;;;21.40;99.90;;;;;;5059255;28;20491;-71
2021/07/19 08:50:11;;;;;;;6.97;4.30;;;21.00;99.90;;;;;;5061333;28;20533;-71
2021/07/19 08:52:38;;;;;;;8.37;5.70;;;21.00;99.90;;;;;;5059128;28;20492;-73
2021/07/19 08:55:07;;;;;;;11.07;4.57;;;21.10;99.90;;;;;;5061601;28;20466;-71
2021/07/19 08:57:38;;;;;;;11.37;6.27;;;21.10;99.90;;;;;;5059900;28;20557;-71
2021/07/19 09:00:09;;;;;;;10.13;5.93;;;21.00;99.90;;;;;;5057118;28;20549;-72
2021/07/19 09:02:36;;;;;;;9.07;4.77;;;21.00;99.90;;;;;;5063458;28;20931;-71
2021/07/19 09:05:04;;;;;;;8.10;5.10;;;20.80;99.90;;;;;;5063841;28;20550;-71
2021/07/19 09:07:32;;;;;;;14.10;4.80;;;20.70;99.90;;;;;;5062053;28;20484;-72
2021/07/19 09:09:59;;;;;;;14.90;5.70;;;20.80;99.90;;;;;;5057981;28;20549;-72
2021/07/19 09:12:38;;;;;;;7.03;4.73;;;21.00;99.90;;;;;;5064155;28;20461;-71
2021/07/19 09:15:06;;;;;;;8.80;5.00;;;21.10;99.90;;;;;;5061718;28;20477;-72
2021/07/19 09:17:33;;;;;;;7.23;5.57;;;21.00;99.90;;;;;;5055449;28;20482;-71
2021/07/19 09:20:00;;;;;;;6.90;4.90;;;20.70;99.90;;;;;;5062695;28;20462;-70
2021/07/19 09:22:29;;;;;;;10.03;4.77;;;20.60;99.90;;;;;;5062704;28;20458;-72
2021/07/19 09:25:07;;;;;;;9.00;5.83;;;20.50;99.90;;;;;;5066241;28;20506;-71
2021/07/19 09:27:36;;;;;;;8.17;5.20;;;20.30;99.90;;;;;;5067651;28;20538;-71
2021/07/19 09:30:15;;;;;;;12.33;4.90;;;20.00;99.90;;;;;;5068238;28;20545;-70
2021/07/19 09:32:59;;;;;;;14.50;5.53;;;20.00;99.90;;;;;;5061356;28;20501;-71
2021/07/19 09:35:27;;;;;;;10.63;5.20;;;20.00;99.90;;;;;;5063767;28;20930;-71
2021/07/19 09:37:55;;;;;;;9.57;5.30;;;20.10;99.90;;;;;;5066217;28;20466;-71
2021/07/19 09:40:29;;;;;;;11.53;6.00;;;19.90;99.90;;;;;;5073463;28;20493;-72
2021/07/19 09:42:58;;;;;;;9.33;6.40;;;20.10;99.90;;;;;;5065860;28;20474;-72
2021/07/19 09:45:27;;;;;;;8.03;5.50;;;20.10;99.90;;;;;;5067727;28;20677;-70
2021/07/19 09:48:04;;;;;;;14.50;6.43;;;20.20;99.90;;;;;;5056819;28;20562;-71
2021/07/19 09:50:44;;;;;;;8.53;5.70;;;20.30;99.90;;;;;;5057165;28;20457;-72
2021/07/19 09:53:11;;;;;;;7.60;5.50;;;20.40;99.90;;;;;;5061019;28;20557;-71
2021/07/19 09:55:38;;;;;;;5.47;4.37;;;20.50;99.90;;;;;;5056755;28;20458;-72
2021/07/19 09:58:07;;;;;;;10.93;5.40;;;20.40;99.90;;;;;;5060157;28;20561;-70
2021/07/19 10:00:35;;;;;;;12.63;5.70;;;20.70;99.90;;;;;;5057705;28;20863;-71
2021/07/19 10:03:13;;;;;;;9.67;5.30;;;20.60;99.90;;;;;;5061774;28;20531;-72
2021/07/19 10:05:40;;;;;;;15.00;6.70;;;20.50;99.90;;;;;;5059163;28;21085;-72
2021/07/19 10:08:07;;;;;;;11.40;5.43;;;20.80;99.90;;;;;;5057995;28;20587;-71
2021/07/19 10:10:35;;;;;;;11.40;5.40;;;21.00;99.90;;;;;;5059329;28;20462;-72
2021/07/19 10:13:03;;;;;;;9.90;5.23;;;21.50;99.90;;;;;;5057457;28;20608;-72
2021/07/19 10:15:33;;;;;;;8.57;5.63;;;22.00;99.90;;;;;;5058645;28;20947;-71
2021/07/19 10:18:07;;;;;;;11.30;5.97;;;22.40;99.90;;;;;;5058375;28;20503;-71
2021/07/19 10:20:35;;;;;;;10.37;5.27;;;22.60;99.90;;;;;;5057939;28;20514;-71
2021/07/19 10:23:03;;;;;;;6.73;5.80;;;22.50;99.90;;;;;;5059059;28;20546;-71
2021/07/19 10:25:29;;;;;;;9.60;6.57;;;22.50;99.90;;;;;;5060256;28;20846;-71
2021/07/19 10:27:57;;;;;;;6.93;4.80;;;22.30;99.90;;;;;;5058816;28;20510;-72
2021/07/19 10:30:24;;;;;;;12.50;5.93;;;22.50;99.90;;;;;;5064107;28;20546;-71
2021/07/19 10:32:53;;;;;;;6.50;4.90;;;22.90;99.90;;;;;;5060534;28;20558;-72
2021/07/19 10:35:20;;;;;;;10.17;6.00;;;22.80;99.90;;;;;;5057940;28;20450;-71
2021/07/19 10:37:53;;;;;;;11.23;5.83;;;22.70;99.90;;;;;;5059093;28;20520;-71
2021/07/19 10:40:27;;;;;;;6.87;5.30;;;22.80;99.90;;;;;;5063854;28;20462;-72
2021/07/19 10:43:05;;;;;;;9.10;5.97;;;22.40;99.90;;;;;;5066230;28;20981;-72
2021/07/19 10:45:40;;;;;;;10.23;5.27;;;22.60;99.90;;;;;;5066449;28;20466;-72
2021/07/19 10:48:09;;;;;;;10.73;5.17;;;22.60;99.90;;;;;;5068107;28;20472;-72
2021/07/19 10:50:41;;;;;;;10.83;6.17;;;22.80;99.90;;;;;;5052653;28;20980;-72
2021/07/19 10:53:19;;;;;;;6.00;4.50;;;22.80;99.90;;;;;;5056578;28;20546;-70
2021/07/19 10:55:57;;;;;;;9.93;5.80;;;23.20;99.90;;;;;;5059001;28;20447;-72
2021/07/19 10:58:29;;;;;;;10.97;6.00;;;24.00;99.90;;;;;;5064107;28;20496;-71
2021/07/19 11:00:56;;;;;;;12.93;5.23;;;25.50;99.90;;;;;;5067181;28;20454;-72
2021/07/19 11:03:24;;;;;;;11.03;5.63;;;26.30;99.90;;;;;;5063686;28;20455;-72
2021/07/19 11:05:53;;;;;;;16.83;7.13;;;26.60;99.90;;;;;;5061200;28;20497;-71
2021/07/19 11:08:23;;;;;;;9.23;5.33;;;25.80;99.90;;;;;;5057985;28;20548;-71
2021/07/19 11:10:50;;;;;;;8.50;6.10;;;25.60;99.90;;;;;;5062384;28;20459;-71
2021/07/19 11:13:34;;;;;;;7.93;5.13;;;25.30;99.90;;;;;;5066095;28;20482;-70
2021/07/19 11:16:02;;;;;;;10.23;5.80;;;25.10;99.90;;;;;;5064078;28;20474;-72
2021/07/19 11:18:30;;;;;;;14.83;6.10;;;24.20;99.90;;;;;;5062095;28;20470;-71
2021/07/19 11:21:02;;;;;;;10.73;6.47;;;23.60;99.90;;;;;;5067515;28;20521;-71
2021/07/19 11:23:32;;;;;;;11.90;5.97;;;23.20;99.90;;;;;;5063569;28;20484;-71
2021/07/19 11:26:01;;;;;;;12.87;7.50;;;23.20;99.90;;;;;;5064207;28;20482;-70
2021/07/19 11:28:31;;;;;;;9.90;6.20;;;23.40;99.90;;;;;;5062844;28;20490;-71
2021/07/19 11:31:09;;;;;;;11.20;5.80;;;24.10;99.90;;;;;;5066506;28;20464;-71
2021/07/19 11:33:39;;;;;;;12.93;6.13;;;24.70;99.90;;;;;;5058460;28;20578;-71
2021/07/19 11:36:18;;;;;;;9.03;6.27;;;25.10;99.90;;;;;;5065659;28;21010;-72
2021/07/19 11:38:45;;;;;;;10.90;6.60;;;25.20;99.90;;;;;;5062813;28;20446;-72
2021/07/19 11:41:21;;;;;;;8.53;6.23;;;25.40;99.90;;;;;;5062853;28;20508;-73
2021/07/19 11:43:50;;;;;;;7.43;4.80;;;26.00;99.90;;;;;;5060151;28;21285;-72
2021/07/19 11:46:31;;;;;;;12.83;8.50;;;26.20;99.90;;;;;;5060262;28;20570;-72
2021/07/19 11:49:02;;;;;;;11.57;5.77;;;26.00;99.90;;;;;;5058411;28;20526;-69
2021/07/19 11:51:30;;;;;;;10.17;6.20;;;25.90;99.90;;;;;;5053500;28;21272;-71
2021/07/19 11:53:58;;;;;;;10.17;6.20;;;26.00;99.90;;;;;;5063527;28;20455;-71
2021/07/19 11:56:26;;;;;;;12.93;6.00;;;26.10;99.90;;;;;;5062339;28;20493;-72
2021/07/19 11:58:54;;;;;;;10.20;6.07;;;26.80;99.90;;;;;;5057010;28;20548;-71
2021/07/19 12:01:29;;;;;;;12.37;6.40;;;27.60;99.90;;;;;;5056565;28;20491;-71
2021/07/19 12:03:56;;;;;;;11.90;6.60;;;27.70;99.90;;;;;;5053017;28;20602;-71
2021/07/19 12:06:25;;;;;;;8.13;4.90;;;26.90;99.90;;;;;;5057486;28;20892;-72
2021/07/19 12:08:55;;;;;;;10.07;6.10;;;26.20;99.90;;;;;;5057790;28;20637;-71
2021/07/19 12:11:23;;;;;;;9.47;6.73;;;25.80;99.90;;;;;;5058030;28;20484;-71
2021/07/19 12:13:50;;;;;;;15.93;6.57;;;25.70;99.90;;;;;;5063572;28;20802;-71
2021/07/19 12:16:17;;;;;;;14.60;6.53;;;25.60;99.90;;;;;;5065394;28;20483;-71
2021/07/19 12:18:46;;;;;;;12.17;6.10;;;25.80;99.90;;;;;;5060717;28;20490;-70
2021/07/19 12:21:15;;;;;;;7.77;6.20;;;25.40;99.90;;;;;;5063851;28;20518;-71
2021/07/19 12:23:46;;;;;;;8.87;5.97;;;24.90;99.90;;;;;;5058584;28;20578;-71
2021/07/19 12:26:15;;;;;;;8.67;6.60;;;24.50;99.90;;;;;;5064733;28;20552;-71
2021/07/19 12:28:53;;;;;;;12.57;6.30;;;24.40;99.90;;;;;;5060381;28;20507;-74
2021/07/19 12:31:26;;;;;;;9.23;5.90;;;24.20;99.90;;;;;;5062913;28;20470;-71
2021/07/19 12:33:53;;;;;;;10.63;6.00;;;24.30;99.90;;;;;;5055635;28;20540;-71
2021/07/19 12:36:20;;;;;;;13.27;6.13;;;24.10;99.90;;;;;;5062841;28;21034;-72
2021/07/19 12:38:50;;;;;;;6.60;5.07;;;24.30;99.90;;;;;;5061813;28;20909;-70
2021/07/19 12:41:18;;;;;;;12.27;6.07;;;24.50;99.90;;;;;;5059510;28;20491;-71
2021/07/19 12:43:46;;;;;;;11.00;6.67;;;24.00;99.90;;;;;;5051419;28;20466;-71
2021/07/19 12:46:14;;;;;;;10.10;6.00;;;24.50;99.90;;;;;;5059010;28;20590;-71
2021/07/19 12:48:45;;;;;;;9.10;6.33;;;24.80;99.90;;;;;;5055076;28;20494;-71
2021/07/19 12:51:14;;;;;;;11.00;7.20;;;24.70;99.90;;;;;;5058915;28;20815;-71